sensor_id;sensor_type;location;lat;lon;timestamp;P1;durP1;ratioP1;P2;durP2;ratioP2
16845;SDS011;8539;53.188;8.696;2023-02-15T00:00:19;64.82;;;33.28;;
16845;SDS011;8539;53.188;8.696;2023-02-15T00:02:48;66.20;;;31.73;;
16845;SDS011;8539;53.188;8.696;2023-02-15T00:05:14;60.75;;;30.00;;
16845;SDS011;8539;53.188;8.696;2023-02-15T00:07:41;65.28;;;31.25;;
16845;SDS011;8539;53.188;8.696;2023-02-15T00:10:08;59.78;;;31.73;;
16845;SDS011;8539;53.188;8.696;2023-02-15T00:12:36;63.55;;;29.55;;
16845;SDS011;8539;53.188;8.696;2023-02-15T00:15:02;62.17;;;31.30;;
16845;SDS011;8539;53.188;8.696;2023-02-15T00:17:29;70.63;;;32.53;;
16845;SDS011;8539;53.188;8.696;2023-02-15T00:19:55;67.10;;;33.08;;
16845;SDS011;8539;53.188;8.696;2023-02-15T00:22:21;69.28;;;32.75;;
16845;SDS011;8539;53.188;8.696;2023-02-15T00:24:47;64.25;;;32.45;;
16845;SDS011;8539;53.188;8.696;2023-02-15T00:27:13;69.18;;;32.17;;
16845;SDS011;8539;53.188;8.696;2023-02-15T00:29:39;66.90;;;32.63;;
16845;SDS011;8539;53.188;8.696;2023-02-15T00:32:05;69.00;;;29.10;;
16845;SDS011;8539;53.188;8.696;2023-02-15T00:34:31;63.88;;;31.63;;
16845;SDS011;8539;53.188;8.696;2023-02-15T00:36:57;58.33;;;28.35;;
16845;SDS011;8539;53.188;8.696;2023-02-15T00:39:23;50.70;;;26.25;;
16845;SDS011;8539;53.188;8.696;2023-02-15T00:41:49;54.58;;;28.40;;
16845;SDS011;8539;53.188;8.696;2023-02-15T00:44:16;59.03;;;29.85;;
16845;SDS011;8539;53.188;8.696;2023-02-15T00:46:42;54.60;;;29.08;;
16845;SDS011;8539;53.188;8.696;2023-02-15T00:49:08;50.47;;;27.33;;
16845;SDS011;8539;53.188;8.696;2023-02-15T00:51:35;50.97;;;25.88;;
16845;SDS011;8539;53.188;8.696;2023-02-15T00:54:01;58.75;;;27.10;;
16845;SDS011;8539;53.188;8.696;2023-02-15T00:56:27;61.05;;;30.10;;
16845;SDS011;8539;53.188;8.696;2023-02-15T00:58:54;59.78;;;28.35;;
16845;SDS011;8539;53.188;8.696;2023-02-15T01:01:20;61.13;;;29.90;;
16845;SDS011;8539;53.188;8.696;2023-02-15T01:03:47;55.85;;;29.35;;
16845;SDS011;8539;53.188;8.696;2023-02-15T01:06:14;62.20;;;29.05;;
16845;SDS011;8539;53.188;8.696;2023-02-15T01:08:41;55.83;;;28.40;;
16845;SDS011;8539;53.188;8.696;2023-02-15T01:11:09;62.00;;;28.42;;
16845;SDS011;8539;53.188;8.696;2023-02-15T01:13:38;51.20;;;27.10;;
16845;SDS011;8539;53.188;8.696;2023-02-15T01:16:05;57.55;;;27.45;;
16845;SDS011;8539;53.188;8.696;2023-02-15T01:18:32;54.17;;;28.10;;
16845;SDS011;8539;53.188;8.696;2023-02-15T01:20:58;55.08;;;28.65;;
16845;SDS011;8539;53.188;8.696;2023-02-15T01:23:25;53.22;;;25.73;;
16845;SDS011;8539;53.188;8.696;2023-02-15T01:25:51;48.28;;;24.15;;
16845;SDS011;8539;53.188;8.696;2023-02-15T01:28:17;52.70;;;25.50;;
16845;SDS011;8539;53.188;8.696;2023-02-15T01:30:43;50.70;;;25.90;;
16845;SDS011;8539;53.188;8.696;2023-02-15T01:33:14;53.17;;;25.60;;
16845;SDS011;8539;53.188;8.696;2023-02-15T01:35:43;56.80;;;27.08;;
16845;SDS011;8539;53.188;8.696;2023-02-15T01:38:13;50.40;;;24.00;;
16845;SDS011;8539;53.188;8.696;2023-02-15T01:40:39;55.15;;;27.05;;
16845;SDS011;8539;53.188;8.696;2023-02-15T01:43:09;51.33;;;25.98;;
16845;SDS011;8539;53.188;8.696;2023-02-15T01:45:36;62.47;;;28.80;;
16845;SDS011;8539;53.188;8.696;2023-02-15T01:48:04;55.25;;;29.55;;
16845;SDS011;8539;53.188;8.696;2023-02-15T01:50:38;50.88;;;26.35;;
16845;SDS011;8539;53.188;8.696;2023-02-15T01:53:13;91.28;;;32.72;;
16845;SDS011;8539;53.188;8.696;2023-02-15T01:55:50;167.30;;;38.50;;
16845;SDS011;8539;53.188;8.696;2023-02-15T01:58:17;72.50;;;28.40;;
16845;SDS011;8539;53.188;8.696;2023-02-15T02:00:44;95.80;;;33.15;;
16845;SDS011;8539;53.188;8.696;2023-02-15T02:03:21;67.28;;;29.63;;
16845;SDS011;8539;53.188;8.696;2023-02-15T02:05:56;52.47;;;26.10;;
16845;SDS011;8539;53.188;8.696;2023-02-15T02:08:22;65.32;;;27.60;;
16845;SDS011;8539;53.188;8.696;2023-02-15T02:10:53;59.60;;;26.77;;
16845;SDS011;8539;53.188;8.696;2023-02-15T02:13:23;80.88;;;26.75;;
16845;SDS011;8539;53.188;8.696;2023-02-15T02:15:56;51.05;;;23.42;;
16845;SDS011;8539;53.188;8.696;2023-02-15T02:35:05;83.85;;;24.95;;
16845;SDS011;8539;53.188;8.696;2023-02-15T02:43:14;51.63;;;21.75;;
16845;SDS011;8539;53.188;8.696;2023-02-15T02:45:58;46.58;;;20.90;;
16845;SDS011;8539;53.188;8.696;2023-02-15T02:48:35;26.75;;;16.63;;
16845;SDS011;8539;53.188;8.696;2023-02-15T02:51:02;42.65;;;19.50;;
16845;SDS011;8539;53.188;8.696;2023-02-15T02:53:29;76.07;;;27.65;;
16845;SDS011;8539;53.188;8.696;2023-02-15T02:55:58;46.03;;;19.27;;
16845;SDS011;8539;53.188;8.696;2023-02-15T02:58:33;41.17;;;20.63;;
16845;SDS011;8539;53.188;8.696;2023-02-15T03:01:11;29.38;;;17.98;;
16845;SDS011;8539;53.188;8.696;2023-02-15T03:03:47;37.65;;;19.92;;
16845;SDS011;8539;53.188;8.696;2023-02-15T03:06:18;41.08;;;18.88;;
16845;SDS011;8539;53.188;8.696;2023-02-15T03:08:51;56.92;;;24.42;;
16845;SDS011;8539;53.188;8.696;2023-02-15T03:11:23;53.20;;;21.27;;
16845;SDS011;8539;53.188;8.696;2023-02-15T03:13:49;34.22;;;19.88;;
16845;SDS011;8539;53.188;8.696;2023-02-15T03:16:16;35.38;;;20.40;;
16845;SDS011;8539;53.188;8.696;2023-02-15T03:18:52;30.40;;;19.30;;
16845;SDS011;8539;53.188;8.696;2023-02-15T03:21:27;28.88;;;18.90;;
16845;SDS011;8539;53.188;8.696;2023-02-15T03:24:04;30.50;;;19.65;;
16845;SDS011;8539;53.188;8.696;2023-02-15T03:26:36;35.92;;;19.88;;
16845;SDS011;8539;53.188;8.696;2023-02-15T03:29:04;31.88;;;20.20;;
16845;SDS011;8539;53.188;8.696;2023-02-15T03:31:33;40.05;;;20.77;;
16845;SDS011;8539;53.188;8.696;2023-02-15T03:34:06;32.08;;;20.27;;
16845;SDS011;8539;53.188;8.696;2023-02-15T03:36:51;35.75;;;20.10;;
16845;SDS011;8539;53.188;8.696;2023-02-15T03:39:28;40.42;;;21.15;;
16845;SDS011;8539;53.188;8.696;2023-02-15T03:45:05;67.90;;;25.83;;
16845;SDS011;8539;53.188;8.696;2023-02-15T03:47:37;39.50;;;20.30;;
16845;SDS011;8539;53.188;8.696;2023-02-15T03:50:12;35.70;;;20.33;;
16845;SDS011;8539;53.188;8.696;2023-02-15T03:53:02;45.78;;;22.70;;
16845;SDS011;8539;53.188;8.696;2023-02-15T03:55:30;33.63;;;19.52;;
16845;SDS011;8539;53.188;8.696;2023-02-15T03:57:57;59.15;;;24.08;;
16845;SDS011;8539;53.188;8.696;2023-02-15T04:00:43;38.17;;;22.45;;
16845;SDS011;8539;53.188;8.696;2023-02-15T04:06:01;39.80;;;21.52;;
16845;SDS011;8539;53.188;8.696;2023-02-15T04:08:29;41.10;;;23.13;;
16845;SDS011;8539;53.188;8.696;2023-02-15T04:11:13;46.08;;;20.98;;
16845;SDS011;8539;53.188;8.696;2023-02-15T04:13:41;35.60;;;21.08;;
16845;SDS011;8539;53.188;8.696;2023-02-15T04:16:07;30.48;;;18.35;;
16845;SDS011;8539;53.188;8.696;2023-02-15T04:18:38;40.40;;;20.42;;
16845;SDS011;8539;53.188;8.696;2023-02-15T04:21:25;39.38;;;20.85;;
16845;SDS011;8539;53.188;8.696;2023-02-15T04:24:11;40.17;;;21.80;;
16845;SDS011;8539;53.188;8.696;2023-02-15T04:26:56;41.00;;;21.25;;
16845;SDS011;8539;53.188;8.696;2023-02-15T04:29:22;40.58;;;23.27;;
16845;SDS011;8539;53.188;8.696;2023-02-15T04:31:49;50.90;;;25.08;;
16845;SDS011;8539;53.188;8.696;2023-02-15T04:34:16;34.72;;;21.00;;
16845;SDS011;8539;53.188;8.696;2023-02-15T04:36:42;41.42;;;20.30;;
16845;SDS011;8539;53.188;8.696;2023-02-15T04:39:08;53.45;;;22.67;;
16845;SDS011;8539;53.188;8.696;2023-02-15T04:41:37;37.80;;;19.70;;
16845;SDS011;8539;53.188;8.696;2023-02-15T04:44:03;64.63;;;22.77;;
16845;SDS011;8539;53.188;8.696;2023-02-15T04:46:31;40.78;;;21.52;;
16845;SDS011;8539;53.188;8.696;2023-02-15T04:48:59;36.92;;;21.55;;
16845;SDS011;8539;53.188;8.696;2023-02-15T04:51:26;35.85;;;20.65;;
16845;SDS011;8539;53.188;8.696;2023-02-15T04:53:52;44.95;;;22.50;;
16845;SDS011;8539;53.188;8.696;2023-02-15T04:56:18;49.35;;;23.08;;
16845;SDS011;8539;53.188;8.696;2023-02-15T04:58:45;73.63;;;25.00;;
16845;SDS011;8539;53.188;8.696;2023-02-15T05:01:12;40.97;;;20.58;;
16845;SDS011;8539;53.188;8.696;2023-02-15T05:03:39;102.30;;;29.23;;
16845;SDS011;8539;53.188;8.696;2023-02-15T05:06:05;43.28;;;22.27;;
16845;SDS011;8539;53.188;8.696;2023-02-15T05:08:31;72.50;;;27.35;;
16845;SDS011;8539;53.188;8.696;2023-02-15T05:10:57;53.85;;;24.92;;
16845;SDS011;8539;53.188;8.696;2023-02-15T05:13:24;45.95;;;19.60;;
16845;SDS011;8539;53.188;8.696;2023-02-15T05:15:50;50.42;;;22.10;;
16845;SDS011;8539;53.188;8.696;2023-02-15T05:18:18;61.97;;;25.77;;
16845;SDS011;8539;53.188;8.696;2023-02-15T05:20:45;49.25;;;21.23;;
16845;SDS011;8539;53.188;8.696;2023-02-15T05:23:12;76.05;;;26.17;;
16845;SDS011;8539;53.188;8.696;2023-02-15T05:25:38;55.63;;;21.85;;
16845;SDS011;8539;53.188;8.696;2023-02-15T05:28:23;44.95;;;21.55;;
16845;SDS011;8539;53.188;8.696;2023-02-15T05:31:04;46.78;;;22.67;;
16845;SDS011;8539;53.188;8.696;2023-02-15T05:33:31;49.30;;;23.30;;
16845;SDS011;8539;53.188;8.696;2023-02-15T05:35:57;46.35;;;23.70;;
16845;SDS011;8539;53.188;8.696;2023-02-15T05:38:23;69.75;;;26.83;;
16845;SDS011;8539;53.188;8.696;2023-02-15T05:40:51;46.97;;;24.55;;
16845;SDS011;8539;53.188;8.696;2023-02-15T05:43:17;50.17;;;24.23;;
16845;SDS011;8539;53.188;8.696;2023-02-15T05:45:45;43.85;;;22.83;;
16845;SDS011;8539;53.188;8.696;2023-02-15T05:48:16;37.05;;;19.88;;
16845;SDS011;8539;53.188;8.696;2023-02-15T05:50:43;39.42;;;22.00;;
16845;SDS011;8539;53.188;8.696;2023-02-15T05:53:09;70.35;;;25.02;;
16845;SDS011;8539;53.188;8.696;2023-02-15T05:55:39;81.72;;;25.80;;
16845;SDS011;8539;53.188;8.696;2023-02-15T05:58:06;68.97;;;25.48;;
16845;SDS011;8539;53.188;8.696;2023-02-15T06:00:33;38.97;;;21.50;;
16845;SDS011;8539;53.188;8.696;2023-02-15T06:02:59;49.75;;;25.60;;
16845;SDS011;8539;53.188;8.696;2023-02-15T06:05:25;49.25;;;27.00;;
16845;SDS011;8539;53.188;8.696;2023-02-15T06:07:51;43.67;;;25.00;;
16845;SDS011;8539;53.188;8.696;2023-02-15T06:10:18;78.00;;;28.13;;
16845;SDS011;8539;53.188;8.696;2023-02-15T06:12:45;78.60;;;29.20;;
16845;SDS011;8539;53.188;8.696;2023-02-15T06:15:11;46.72;;;23.83;;
16845;SDS011;8539;53.188;8.696;2023-02-15T06:17:40;45.17;;;21.88;;
16845;SDS011;8539;53.188;8.696;2023-02-15T06:20:07;64.35;;;26.48;;
16845;SDS011;8539;53.188;8.696;2023-02-15T06:22:34;44.03;;;23.73;;
16845;SDS011;8539;53.188;8.696;2023-02-15T06:25:01;88.00;;;27.38;;
16845;SDS011;8539;53.188;8.696;2023-02-15T06:27:27;52.80;;;23.58;;
16845;SDS011;8539;53.188;8.696;2023-02-15T06:29:53;78.07;;;27.98;;
16845;SDS011;8539;53.188;8.696;2023-02-15T06:32:19;55.88;;;23.15;;
16845;SDS011;8539;53.188;8.696;2023-02-15T06:34:45;49.17;;;21.88;;
16845;SDS011;8539;53.188;8.696;2023-02-15T06:37:11;94.53;;;28.80;;
16845;SDS011;8539;53.188;8.696;2023-02-15T06:39:37;58.80;;;23.77;;
16845;SDS011;8539;53.188;8.696;2023-02-15T06:42:04;63.20;;;23.35;;
16845;SDS011;8539;53.188;8.696;2023-02-15T06:44:30;39.38;;;20.90;;
16845;SDS011;8539;53.188;8.696;2023-02-15T06:46:56;36.88;;;20.10;;
16845;SDS011;8539;53.188;8.696;2023-02-15T06:49:22;40.05;;;20.55;;
16845;SDS011;8539;53.188;8.696;2023-02-15T06:51:48;75.22;;;22.60;;
16845;SDS011;8539;53.188;8.696;2023-02-15T06:54:16;54.88;;;24.17;;
16845;SDS011;8539;53.188;8.696;2023-02-15T06:56:44;42.80;;;22.63;;
16845;SDS011;8539;53.188;8.696;2023-02-15T06:59:10;46.58;;;23.98;;
16845;SDS011;8539;53.188;8.696;2023-02-15T07:01:36;42.75;;;22.75;;
16845;SDS011;8539;53.188;8.696;2023-02-15T07:04:03;35.92;;;22.02;;
16845;SDS011;8539;53.188;8.696;2023-02-15T07:06:33;53.17;;;26.30;;
16845;SDS011;8539;53.188;8.696;2023-02-15T07:08:59;40.00;;;20.00;;
16845;SDS011;8539;53.188;8.696;2023-02-15T07:11:25;39.53;;;20.58;;
16845;SDS011;8539;53.188;8.696;2023-02-15T07:14:10;38.83;;;21.13;;
16845;SDS011;8539;53.188;8.696;2023-02-15T07:16:36;37.38;;;21.48;;
16845;SDS011;8539;53.188;8.696;2023-02-15T07:19:02;39.72;;;22.02;;
16845;SDS011;8539;53.188;8.696;2023-02-15T07:21:29;45.22;;;23.23;;
16845;SDS011;8539;53.188;8.696;2023-02-15T07:23:58;38.75;;;21.98;;
16845;SDS011;8539;53.188;8.696;2023-02-15T07:26:24;58.40;;;25.60;;
16845;SDS011;8539;53.188;8.696;2023-02-15T07:28:51;35.65;;;20.77;;
16845;SDS011;8539;53.188;8.696;2023-02-15T07:31:17;42.95;;;22.42;;
16845;SDS011;8539;53.188;8.696;2023-02-15T07:33:43;36.78;;;22.30;;
16845;SDS011;8539;53.188;8.696;2023-02-15T07:36:09;43.20;;;23.73;;
16845;SDS011;8539;53.188;8.696;2023-02-15T07:38:38;43.05;;;23.13;;
16845;SDS011;8539;53.188;8.696;2023-02-15T07:41:07;46.60;;;25.25;;
16845;SDS011;8539;53.188;8.696;2023-02-15T07:43:36;44.22;;;23.80;;
16845;SDS011;8539;53.188;8.696;2023-02-15T07:46:05;49.17;;;24.55;;
16845;SDS011;8539;53.188;8.696;2023-02-15T07:48:33;54.15;;;24.30;;
16845;SDS011;8539;53.188;8.696;2023-02-15T07:51:00;43.95;;;23.85;;
16845;SDS011;8539;53.188;8.696;2023-02-15T07:53:27;46.45;;;23.20;;
16845;SDS011;8539;53.188;8.696;2023-02-15T07:55:54;44.65;;;23.77;;
16845;SDS011;8539;53.188;8.696;2023-02-15T07:58:23;42.08;;;24.55;;
16845;SDS011;8539;53.188;8.696;2023-02-15T08:01:12;43.92;;;22.27;;
16845;SDS011;8539;53.188;8.696;2023-02-15T08:03:46;54.90;;;24.35;;
16845;SDS011;8539;53.188;8.696;2023-02-15T08:06:12;57.50;;;25.63;;
16845;SDS011;8539;53.188;8.696;2023-02-15T08:08:39;48.22;;;26.25;;
16845;SDS011;8539;53.188;8.696;2023-02-15T08:11:07;43.53;;;24.33;;
16845;SDS011;8539;53.188;8.696;2023-02-15T08:16:28;64.95;;;28.48;;
16845;SDS011;8539;53.188;8.696;2023-02-15T08:18:57;57.53;;;27.90;;
16845;SDS011;8539;53.188;8.696;2023-02-15T08:21:25;52.10;;;25.90;;
16845;SDS011;8539;53.188;8.696;2023-02-15T08:23:52;55.40;;;28.20;;
16845;SDS011;8539;53.188;8.696;2023-02-15T08:26:20;60.75;;;30.60;;
16845;SDS011;8539;53.188;8.696;2023-02-15T08:28:48;61.03;;;31.50;;
16845;SDS011;8539;53.188;8.696;2023-02-15T08:31:16;64.70;;;30.88;;
16845;SDS011;8539;53.188;8.696;2023-02-15T08:33:42;66.38;;;33.78;;
16845;SDS011;8539;53.188;8.696;2023-02-15T08:36:13;67.88;;;33.03;;
16845;SDS011;8539;53.188;8.696;2023-02-15T08:38:42;70.03;;;33.13;;
16845;SDS011;8539;53.188;8.696;2023-02-15T08:41:09;61.75;;;32.33;;
16845;SDS011;8539;53.188;8.696;2023-02-15T08:43:45;66.20;;;33.35;;
16845;SDS011;8539;53.188;8.696;2023-02-15T08:46:13;63.88;;;36.60;;
16845;SDS011;8539;53.188;8.696;2023-02-15T08:48:41;81.93;;;38.80;;
16845;SDS011;8539;53.188;8.696;2023-02-15T08:51:11;82.53;;;40.78;;
16845;SDS011;8539;53.188;8.696;2023-02-15T08:53:39;81.15;;;40.53;;
16845;SDS011;8539;53.188;8.696;2023-02-15T08:56:06;83.32;;;40.05;;
16845;SDS011;8539;53.188;8.696;2023-02-15T08:58:33;67.03;;;37.65;;
16845;SDS011;8539;53.188;8.696;2023-02-15T09:01:00;80.50;;;40.85;;
16845;SDS011;8539;53.188;8.696;2023-02-15T09:03:28;80.55;;;42.40;;
16845;SDS011;8539;53.188;8.696;2023-02-15T09:05:58;91.65;;;48.25;;
16845;SDS011;8539;53.188;8.696;2023-02-15T09:08:26;91.97;;;45.63;;
16845;SDS011;8539;53.188;8.696;2023-02-15T09:10:53;87.82;;;43.85;;
16845;SDS011;8539;53.188;8.696;2023-02-15T09:13:20;77.43;;;39.95;;
16845;SDS011;8539;53.188;8.696;2023-02-15T09:15:46;88.50;;;46.75;;
16845;SDS011;8539;53.188;8.696;2023-02-15T09:18:12;86.22;;;47.40;;
16845;SDS011;8539;53.188;8.696;2023-02-15T09:20:43;96.88;;;48.35;;
16845;SDS011;8539;53.188;8.696;2023-02-15T09:23:10;89.85;;;46.50;;
16845;SDS011;8539;53.188;8.696;2023-02-15T09:25:36;85.95;;;44.85;;
16845;SDS011;8539;53.188;8.696;2023-02-15T09:28:02;88.18;;;43.60;;
16845;SDS011;8539;53.188;8.696;2023-02-15T09:30:28;86.10;;;44.03;;
16845;SDS011;8539;53.188;8.696;2023-02-15T09:32:54;78.45;;;42.40;;
16845;SDS011;8539;53.188;8.696;2023-02-15T09:35:20;69.35;;;39.45;;
16845;SDS011;8539;53.188;8.696;2023-02-15T09:37:46;71.90;;;39.60;;
16845;SDS011;8539;53.188;8.696;2023-02-15T09:40:13;73.57;;;40.00;;
16845;SDS011;8539;53.188;8.696;2023-02-15T09:42:44;68.38;;;38.63;;
16845;SDS011;8539;53.188;8.696;2023-02-15T09:51:25;46.63;;;32.57;;
16845;SDS011;8539;53.188;8.696;2023-02-15T09:56:57;40.22;;;26.48;;
16845;SDS011;8539;53.188;8.696;2023-02-15T09:59:40;42.10;;;24.45;;
16845;SDS011;8539;53.188;8.696;2023-02-15T10:04:56;27.17;;;20.05;;
16845;SDS011;8539;53.188;8.696;2023-02-15T10:07:51;20.75;;;16.75;;
16845;SDS011;8539;53.188;8.696;2023-02-15T10:10:57;24.27;;;15.75;;
16845;SDS011;8539;53.188;8.696;2023-02-15T10:16:45;22.40;;;14.75;;
16845;SDS011;8539;53.188;8.696;2023-02-15T10:25:21;20.33;;;15.55;;
16845;SDS011;8539;53.188;8.696;2023-02-15T10:28:09;20.85;;;14.70;;
16845;SDS011;8539;53.188;8.696;2023-02-15T10:30:46;25.25;;;16.20;;
16845;SDS011;8539;53.188;8.696;2023-02-15T10:36:07;24.38;;;16.80;;
16845;SDS011;8539;53.188;8.696;2023-02-15T10:39:05;19.50;;;15.05;;
16845;SDS011;8539;53.188;8.696;2023-02-15T10:41:44;22.48;;;15.70;;
16845;SDS011;8539;53.188;8.696;2023-02-15T10:44:49;18.95;;;16.02;;
16845;SDS011;8539;53.188;8.696;2023-02-15T10:56:11;25.45;;;17.27;;
16845;SDS011;8539;53.188;8.696;2023-02-15T11:07:32;29.33;;;17.58;;
16845;SDS011;8539;53.188;8.696;2023-02-15T11:12:38;29.85;;;17.95;;
16845;SDS011;8539;53.188;8.696;2023-02-15T11:15:16;25.45;;;16.80;;
16845;SDS011;8539;53.188;8.696;2023-02-15T11:23:29;24.80;;;17.90;;
16845;SDS011;8539;53.188;8.696;2023-02-15T11:25:58;28.92;;;19.15;;
16845;SDS011;8539;53.188;8.696;2023-02-15T11:28:34;25.15;;;18.63;;
16845;SDS011;8539;53.188;8.696;2023-02-15T11:31:11;27.25;;;20.10;;
16845;SDS011;8539;53.188;8.696;2023-02-15T11:33:47;29.63;;;19.50;;
16845;SDS011;8539;53.188;8.696;2023-02-15T11:36:28;29.23;;;20.40;;
16845;SDS011;8539;53.188;8.696;2023-02-15T11:39:02;29.40;;;20.15;;
16845;SDS011;8539;53.188;8.696;2023-02-15T11:41:34;28.20;;;19.45;;
16845;SDS011;8539;53.188;8.696;2023-02-15T11:44:15;28.42;;;19.63;;
16845;SDS011;8539;53.188;8.696;2023-02-15T11:46:46;30.40;;;19.52;;
16845;SDS011;8539;53.188;8.696;2023-02-15T11:49:20;27.17;;;18.55;;
16845;SDS011;8539;53.188;8.696;2023-02-15T11:51:50;26.85;;;17.90;;
16845;SDS011;8539;53.188;8.696;2023-02-15T11:54:18;22.63;;;15.90;;
16845;SDS011;8539;53.188;8.696;2023-02-15T11:56:47;26.48;;;18.30;;
16845;SDS011;8539;53.188;8.696;2023-02-15T11:59:16;23.55;;;16.52;;
16845;SDS011;8539;53.188;8.696;2023-02-15T12:01:50;30.40;;;19.48;;
16845;SDS011;8539;53.188;8.696;2023-02-15T12:07:25;24.80;;;18.45;;
16845;SDS011;8539;53.188;8.696;2023-02-15T12:12:45;23.35;;;17.42;;
16845;SDS011;8539;53.188;8.696;2023-02-15T12:15:12;29.35;;;20.90;;
16845;SDS011;8539;53.188;8.696;2023-02-15T12:17:40;28.88;;;19.88;;
16845;SDS011;8539;53.188;8.696;2023-02-15T12:22:51;31.20;;;19.60;;
16845;SDS011;8539;53.188;8.696;2023-02-15T12:25:37;34.70;;;20.67;;
16845;SDS011;8539;53.188;8.696;2023-02-15T12:31:17;30.80;;;21.75;;
16845;SDS011;8539;53.188;8.696;2023-02-15T12:33:47;34.90;;;22.10;;
16845;SDS011;8539;53.188;8.696;2023-02-15T12:36:20;32.08;;;22.25;;
16845;SDS011;8539;53.188;8.696;2023-02-15T12:39:09;31.75;;;21.30;;
16845;SDS011;8539;53.188;8.696;2023-02-15T12:44:27;41.45;;;22.10;;
16845;SDS011;8539;53.188;8.696;2023-02-15T12:46:55;36.35;;;23.10;;
16845;SDS011;8539;53.188;8.696;2023-02-15T12:49:22;36.88;;;23.35;;
16845;SDS011;8539;53.188;8.696;2023-02-15T12:51:52;34.78;;;22.90;;
16845;SDS011;8539;53.188;8.696;2023-02-15T12:54:37;39.72;;;23.75;;
16845;SDS011;8539;53.188;8.696;2023-02-15T12:57:25;34.78;;;23.70;;
16845;SDS011;8539;53.188;8.696;2023-02-15T13:00:02;34.38;;;23.40;;
16845;SDS011;8539;53.188;8.696;2023-02-15T13:02:51;32.78;;;22.58;;
16845;SDS011;8539;53.188;8.696;2023-02-15T13:08:13;41.47;;;26.98;;
16845;SDS011;8539;53.188;8.696;2023-02-15T13:10:51;40.05;;;25.50;;
16845;SDS011;8539;53.188;8.696;2023-02-15T13:18:39;38.40;;;26.20;;
16845;SDS011;8539;53.188;8.696;2023-02-15T13:21:19;41.30;;;25.60;;
16845;SDS011;8539;53.188;8.696;2023-02-15T13:23:51;40.85;;;25.23;;
16845;SDS011;8539;53.188;8.696;2023-02-15T13:26:23;37.70;;;24.58;;
16845;SDS011;8539;53.188;8.696;2023-02-15T13:28:54;38.45;;;26.88;;
16845;SDS011;8539;53.188;8.696;2023-02-15T13:31:26;39.95;;;27.75;;
16845;SDS011;8539;53.188;8.696;2023-02-15T13:34:00;34.53;;;24.67;;
16845;SDS011;8539;53.188;8.696;2023-02-15T13:50:36;42.30;;;27.05;;
16845;SDS011;8539;53.188;8.696;2023-02-15T13:55:36;42.47;;;27.50;;
16845;SDS011;8539;53.188;8.696;2023-02-15T13:58:53;38.33;;;26.92;;
16845;SDS011;8539;53.188;8.696;2023-02-15T14:07:40;38.45;;;27.60;;
16845;SDS011;8539;53.188;8.696;2023-02-15T14:10:20;38.95;;;24.48;;
16845;SDS011;8539;53.188;8.696;2023-02-15T14:21:47;38.17;;;26.00;;
16845;SDS011;8539;53.188;8.696;2023-02-15T14:24:39;38.17;;;26.25;;
16845;SDS011;8539;53.188;8.696;2023-02-15T14:27:51;38.90;;;25.50;;
16845;SDS011;8539;53.188;8.696;2023-02-15T14:30:49;39.50;;;25.75;;
16845;SDS011;8539;53.188;8.696;2023-02-15T14:33:29;44.00;;;26.30;;
16845;SDS011;8539;53.188;8.696;2023-02-15T14:36:06;44.10;;;26.60;;
16845;SDS011;8539;53.188;8.696;2023-02-15T14:38:58;49.88;;;28.40;;
16845;SDS011;8539;53.188;8.696;2023-02-15T14:41:43;41.63;;;27.38;;
16845;SDS011;8539;53.188;8.696;2023-02-15T14:44:23;41.05;;;26.90;;
16845;SDS011;8539;53.188;8.696;2023-02-15T14:49:45;45.13;;;27.27;;
16845;SDS011;8539;53.188;8.696;2023-02-15T14:52:12;42.45;;;26.35;;
16845;SDS011;8539;53.188;8.696;2023-02-15T14:59:37;43.13;;;26.63;;
16845;SDS011;8539;53.188;8.696;2023-02-15T15:05:20;40.83;;;24.38;;
16845;SDS011;8539;53.188;8.696;2023-02-15T15:07:57;43.25;;;27.60;;
16845;SDS011;8539;53.188;8.696;2023-02-15T15:12:54;42.97;;;28.58;;
16845;SDS011;8539;53.188;8.696;2023-02-15T15:21:08;42.00;;;25.00;;
16845;SDS011;8539;53.188;8.696;2023-02-15T15:23:38;43.78;;;25.83;;
16845;SDS011;8539;53.188;8.696;2023-02-15T15:28:56;38.88;;;22.52;;
16845;SDS011;8539;53.188;8.696;2023-02-15T15:36:51;35.13;;;22.15;;
16845;SDS011;8539;53.188;8.696;2023-02-15T15:39:39;40.35;;;24.95;;
16845;SDS011;8539;53.188;8.696;2023-02-15T15:50:26;42.55;;;23.98;;
16845;SDS011;8539;53.188;8.696;2023-02-15T15:52:53;35.97;;;24.30;;
16845;SDS011;8539;53.188;8.696;2023-02-15T15:55:30;40.20;;;23.17;;
16845;SDS011;8539;53.188;8.696;2023-02-15T15:57:59;40.33;;;24.67;;
16845;SDS011;8539;53.188;8.696;2023-02-15T16:03:36;45.55;;;23.70;;
16845;SDS011;8539;53.188;8.696;2023-02-15T16:06:02;42.03;;;24.15;;
16845;SDS011;8539;53.188;8.696;2023-02-15T16:08:33;38.45;;;23.10;;
16845;SDS011;8539;53.188;8.696;2023-02-15T16:11:07;42.92;;;26.30;;
16845;SDS011;8539;53.188;8.696;2023-02-15T16:13:36;39.08;;;23.65;;
16845;SDS011;8539;53.188;8.696;2023-02-15T16:16:08;38.80;;;24.50;;
16845;SDS011;8539;53.188;8.696;2023-02-15T16:18:38;40.17;;;24.05;;
16845;SDS011;8539;53.188;8.696;2023-02-15T16:21:16;38.53;;;22.60;;
16845;SDS011;8539;53.188;8.696;2023-02-15T16:29:18;39.70;;;22.77;;
16845;SDS011;8539;53.188;8.696;2023-02-15T16:31:59;40.33;;;21.98;;
16845;SDS011;8539;53.188;8.696;2023-02-15T16:34:26;35.55;;;21.15;;
16845;SDS011;8539;53.188;8.696;2023-02-15T16:37:13;37.58;;;22.48;;
16845;SDS011;8539;53.188;8.696;2023-02-15T16:39:43;37.03;;;22.13;;
16845;SDS011;8539;53.188;8.696;2023-02-15T16:42:13;34.80;;;22.67;;
16845;SDS011;8539;53.188;8.696;2023-02-15T16:44:42;32.78;;;20.65;;
16845;SDS011;8539;53.188;8.696;2023-02-15T16:47:19;35.80;;;22.65;;
16845;SDS011;8539;53.188;8.696;2023-02-15T16:49:50;40.97;;;22.17;;
16845;SDS011;8539;53.188;8.696;2023-02-15T16:52:20;37.35;;;21.85;;
16845;SDS011;8539;53.188;8.696;2023-02-15T16:54:55;33.72;;;21.08;;
16845;SDS011;8539;53.188;8.696;2023-02-15T16:57:24;43.10;;;23.92;;
16845;SDS011;8539;53.188;8.696;2023-02-15T16:59:55;37.20;;;23.27;;
16845;SDS011;8539;53.188;8.696;2023-02-15T17:02:29;35.05;;;21.40;;
16845;SDS011;8539;53.188;8.696;2023-02-15T17:05:05;35.00;;;21.50;;
16845;SDS011;8539;53.188;8.696;2023-02-15T17:07:38;40.75;;;22.52;;
16845;SDS011;8539;53.188;8.696;2023-02-15T17:10:25;35.75;;;20.58;;
16845;SDS011;8539;53.188;8.696;2023-02-15T17:12:54;40.65;;;21.85;;
16845;SDS011;8539;53.188;8.696;2023-02-15T17:15:33;39.35;;;22.27;;
16845;SDS011;8539;53.188;8.696;2023-02-15T17:18:11;41.42;;;23.40;;
16845;SDS011;8539;53.188;8.696;2023-02-15T17:20:44;37.00;;;22.33;;
16845;SDS011;8539;53.188;8.696;2023-02-15T17:26:27;34.17;;;22.27;;
16845;SDS011;8539;53.188;8.696;2023-02-15T17:37:46;34.78;;;22.52;;
16845;SDS011;8539;53.188;8.696;2023-02-15T17:42:39;33.97;;;20.85;;
16845;SDS011;8539;53.188;8.696;2023-02-15T17:45:05;36.13;;;21.80;;
16845;SDS011;8539;53.188;8.696;2023-02-15T17:47:31;39.05;;;22.48;;
16845;SDS011;8539;53.188;8.696;2023-02-15T17:49:58;36.28;;;23.50;;
16845;SDS011;8539;53.188;8.696;2023-02-15T17:52:26;37.47;;;22.65;;
16845;SDS011;8539;53.188;8.696;2023-02-15T17:54:54;36.38;;;22.02;;
16845;SDS011;8539;53.188;8.696;2023-02-15T17:57:39;41.67;;;25.85;;
16845;SDS011;8539;53.188;8.696;2023-02-15T18:00:05;33.60;;;21.63;;
16845;SDS011;8539;53.188;8.696;2023-02-15T18:02:51;41.05;;;24.13;;
16845;SDS011;8539;53.188;8.696;2023-02-15T18:05:37;36.45;;;21.35;;
16845;SDS011;8539;53.188;8.696;2023-02-15T18:08:22;38.13;;;23.25;;
16845;SDS011;8539;53.188;8.696;2023-02-15T18:11:10;43.08;;;23.17;;